sensor_id;sensor_type;location;lat;lon;timestamp;temperature;humidity
14210;DHT22;7188;56.070;12.698;2024-01-06T00:00:13;-9.20;99.90
14210;DHT22;7188;56.070;12.698;2024-01-06T00:02:39;-9.30;99.90
14210;DHT22;7188;56.070;12.698;2024-01-06T00:05:05;-9.30;99.90
14210;DHT22;7188;56.070;12.698;2024-01-06T00:07:31;-9.30;99.90
14210;DHT22;7188;56.070;12.698;2024-01-06T00:09:56;-9.30;99.90
14210;DHT22;7188;56.070;12.698;2024-01-06T00:12:22;-9.40;99.90
14210;DHT22;7188;56.070;12.698;2024-01-06T00:14:48;-9.30;99.90
14210;DHT22;7188;56.070;12.698;2024-01-06T00:17:14;-9.30;99.90
14210;DHT22;7188;56.070;12.698;2024-01-06T00:19:39;-9.30;99.90
14210;DHT22;7188;56.070;12.698;2024-01-06T00:22:05;-9.30;99.90
14210;DHT22;7188;56.070;12.698;2024-01-06T00:24:31;-9.20;99.90
14210;DHT22;7188;56.070;12.698;2024-01-06T00:26:56;-9.30;99.90
14210;DHT22;7188;56.070;12.698;2024-01-06T00:29:22;-9.40;99.90
14210;DHT22;7188;56.070;12.698;2024-01-06T00:31:48;-9.40;99.90
14210;DHT22;7188;56.070;12.698;2024-01-06T00:34:13;-9.50;99.90
14210;DHT22;7188;56.070;12.698;2024-01-06T00:36:39;-9.50;99.90
14210;DHT22;7188;56.070;12.698;2024-01-06T00:39:04;-9.60;99.90
14210;DHT22;7188;56.070;12.698;2024-01-06T00:41:30;-9.60;99.90
14210;DHT22;7188;56.070;12.698;2024-01-06T00:43:56;-9.70;99.90
14210;DHT22;7188;56.070;12.698;2024-01-06T00:46:21;-9.80;99.90
14210;DHT22;7188;56.070;12.698;2024-01-06T00:48:47;-9.80;99.90
14210;DHT22;7188;56.070;12.698;2024-01-06T00:51:12;-9.90;99.90
14210;DHT22;7188;56.070;12.698;2024-01-06T00:53:38;-9.90;99.90
14210;DHT22;7188;56.070;12.698;2024-01-06T00:56:04;-10.00;99.90
14210;DHT22;7188;56.070;12.698;2024-01-06T00:58:29;-10.10;99.90
14210;DHT22;7188;56.070;12.698;2024-01-06T01:00:55;-10.10;99.90
14210;DHT22;7188;56.070;12.698;2024-01-06T01:03:20;-10.10;99.90
14210;DHT22;7188;56.070;12.698;2024-01-06T01:05:46;-10.10;99.90
14210;DHT22;7188;56.070;12.698;2024-01-06T01:08:12;-10.20;99.90
14210;DHT22;7188;56.070;12.698;2024-01-06T01:10:37;-10.20;99.90
14210;DHT22;7188;56.070;12.698;2024-01-06T01:13:03;-10.30;99.90
14210;DHT22;7188;56.070;12.698;2024-01-06T01:15:29;-10.30;99.90
14210;DHT22;7188;56.070;12.698;2024-01-06T01:17:55;-10.30;99.90
14210;DHT22;7188;56.070;12.698;2024-01-06T01:20:20;-10.30;99.90
14210;DHT22;7188;56.070;12.698;2024-01-06T01:22:46;-10.30;99.90
14210;DHT22;7188;56.070;12.698;2024-01-06T01:25:12;-10.30;99.90
14210;DHT22;7188;56.070;12.698;2024-01-06T01:27:38;-10.30;99.90
14210;DHT22;7188;56.070;12.698;2024-01-06T01:30:04;-10.30;99.90
14210;DHT22;7188;56.070;12.698;2024-01-06T01:32:30;-10.30;99.90
14210;DHT22;7188;56.070;12.698;2024-01-06T01:34:56;-10.20;99.90
14210;DHT22;7188;56.070;12.698;2024-01-06T01:37:22;-10.20;99.90
14210;DHT22;7188;56.070;12.698;2024-01-06T01:39:47;-10.20;99.90
14210;DHT22;7188;56.070;12.698;2024-01-06T01:42:13;-10.10;99.90
14210;DHT22;7188;56.070;12.698;2024-01-06T01:44:38;-10.10;99.90
14210;DHT22;7188;56.070;12.698;2024-01-06T01:47:05;-10.00;99.90
14210;DHT22;7188;56.070;12.698;2024-01-06T01:49:30;-10.00;99.90
14210;DHT22;7188;56.070;12.698;2024-01-06T01:51:58;-10.10;99.90
14210;DHT22;7188;56.070;12.698;2024-01-06T01:54:24;-10.20;99.90
14210;DHT22;7188;56.070;12.698;2024-01-06T01:56:50;-10.30;99.90
14210;DHT22;7188;56.070;12.698;2024-01-06T01:59:18;-10.40;99.90
14210;DHT22;7188;56.070;12.698;2024-01-06T02:01:45;-10.50;99.90
14210;DHT22;7188;56.070;12.698;2024-01-06T02:04:17;-10.50;99.90
14210;DHT22;7188;56.070;12.698;2024-01-06T02:06:43;-10.60;99.90
14210;DHT22;7188;56.070;12.698;2024-01-06T02:09:08;-10.70;99.90
14210;DHT22;7188;56.070;12.698;2024-01-06T02:11:34;-10.80;99.90
14210;DHT22;7188;56.070;12.698;2024-01-06T02:13:59;-10.90;99.90
14210;DHT22;7188;56.070;12.698;2024-01-06T02:16:26;-11.00;99.90
14210;DHT22;7188;56.070;12.698;2024-01-06T02:18:52;-11.00;99.90
14210;DHT22;7188;56.070;12.698;2024-01-06T02:21:18;-11.10;99.90
14210;DHT22;7188;56.070;12.698;2024-01-06T02:23:47;-11.10;99.90
14210;DHT22;7188;56.070;12.698;2024-01-06T02:26:13;-11.10;99.90
14210;DHT22;7188;56.070;12.698;2024-01-06T02:28:40;-11.10;99.90
14210;DHT22;7188;56.070;12.698;2024-01-06T02:31:06;-11.20;99.90
14210;DHT22;7188;56.070;12.698;2024-01-06T02:33:32;-11.20;99.90
14210;DHT22;7188;56.070;12.698;2024-01-06T02:35:57;-11.20;99.90
14210;DHT22;7188;56.070;12.698;2024-01-06T02:38:23;-11.20;99.90
14210;DHT22;7188;56.070;12.698;2024-01-06T02:40:48;-11.30;99.90
14210;DHT22;7188;56.070;12.698;2024-01-06T02:43:14;-11.30;99.90
14210;DHT22;7188;56.070;12.698;2024-01-06T02:45:40;-11.30;99.90
14210;DHT22;7188;56.070;12.698;2024-01-06T02:48:05;-11.30;99.90
14210;DHT22;7188;56.070;12.698;2024-01-06T02:50:31;-11.40;99.90
14210;DHT22;7188;56.070;12.698;2024-01-06T02:52:56;-11.40;99.90
14210;DHT22;7188;56.070;12.698;2024-01-06T02:55:22;-11.40;99.90
14210;DHT22;7188;56.070;12.698;2024-01-06T03:00:57;-11.50;99.90
14210;DHT22;7188;56.070;12.698;2024-01-06T03:03:24;-11.50;99.90
14210;DHT22;7188;56.070;12.698;2024-01-06T03:05:50;-11.50;99.90
14210;DHT22;7188;56.070;12.698;2024-01-06T03:08:15;-11.50;99.90
14210;DHT22;7188;56.070;12.698;2024-01-06T03:10:41;-11.60;99.90
14210;DHT22;7188;56.070;12.698;2024-01-06T03:13:07;-11.60;99.90
14210;DHT22;7188;56.070;12.698;2024-01-06T03:15:33;-11.60;99.90
14210;DHT22;7188;56.070;12.698;2024-01-06T03:17:58;-11.60;99.90
14210;DHT22;7188;56.070;12.698;2024-01-06T03:20:24;-11.60;99.90
14210;DHT22;7188;56.070;12.698;2024-01-06T03:22:49;-11.60;99.90
14210;DHT22;7188;56.070;12.698;2024-01-06T03:25:15;-11.60;99.90
14210;DHT22;7188;56.070;12.698;2024-01-06T03:27:41;-11.60;99.90
14210;DHT22;7188;56.070;12.698;2024-01-06T03:30:07;-11.60;99.90
14210;DHT22;7188;56.070;12.698;2024-01-06T03:32:32;-11.60;99.90
14210;DHT22;7188;56.070;12.698;2024-01-06T03:34:58;-11.70;99.90
14210;DHT22;7188;56.070;12.698;2024-01-06T03:37:24;-11.70;99.90
14210;DHT22;7188;56.070;12.698;2024-01-06T03:39:50;-11.70;99.90
14210;DHT22;7188;56.070;12.698;2024-01-06T03:42:15;-11.80;99.90
14210;DHT22;7188;56.070;12.698;2024-01-06T03:45:15;-11.80;99.90
14210;DHT22;7188;56.070;12.698;2024-01-06T03:47:40;-11.80;99.90
14210;DHT22;7188;56.070;12.698;2024-01-06T03:50:06;-11.90;99.90
14210;DHT22;7188;56.070;12.698;2024-01-06T03:52:32;-11.90;99.90
14210;DHT22;7188;56.070;12.698;2024-01-06T03:54:58;-12.00;99.90
14210;DHT22;7188;56.070;12.698;2024-01-06T03:57:23;-12.00;99.90
14210;DHT22;7188;56.070;12.698;2024-01-06T04:00:11;-12.00;99.90
14210;DHT22;7188;56.070;12.698;2024-01-06T04:02:37;-12.00;99.90
14210;DHT22;7188;56.070;12.698;2024-01-06T04:05:02;-12.00;99.90
14210;DHT22;7188;56.070;12.698;2024-01-06T04:07:30;-12.10;99.90
14210;DHT22;7188;56.070;12.698;2024-01-06T04:09:56;-12.00;99.90
14210;DHT22;7188;56.070;12.698;2024-01-06T04:12:21;-12.10;99.90
14210;DHT22;7188;56.070;12.698;2024-01-06T04:14:47;-12.10;99.90
14210;DHT22;7188;56.070;12.698;2024-01-06T04:17:12;-12.10;99.90
14210;DHT22;7188;56.070;12.698;2024-01-06T04:19:38;-12.10;99.90
14210;DHT22;7188;56.070;12.698;2024-01-06T04:22:15;-12.20;99.90
14210;DHT22;7188;56.070;12.698;2024-01-06T04:24:40;-12.10;99.90
14210;DHT22;7188;56.070;12.698;2024-01-06T04:27:06;-12.10;99.90
14210;DHT22;7188;56.070;12.698;2024-01-06T04:29:31;-12.10;99.90
14210;DHT22;7188;56.070;12.698;2024-01-06T04:31:57;-12.10;99.90
14210;DHT22;7188;56.070;12.698;2024-01-06T04:34:23;-12.10;99.90
14210;DHT22;7188;56.070;12.698;2024-01-06T04:36:48;-12.10;99.90
14210;DHT22;7188;56.070;12.698;2024-01-06T04:39:15;-12.10;99.90
14210;DHT22;7188;56.070;12.698;2024-01-06T04:41:41;-12.10;99.90
14210;DHT22;7188;56.070;12.698;2024-01-06T04:44:07;-12.10;99.90
14210;DHT22;7188;56.070;12.698;2024-01-06T04:46:33;-12.10;99.90
14210;DHT22;7188;56.070;12.698;2024-01-06T04:48:58;-12.10;99.90
14210;DHT22;7188;56.070;12.698;2024-01-06T04:51:24;-12.20;99.90
14210;DHT22;7188;56.070;12.698;2024-01-06T04:53:49;-12.20;99.90
14210;DHT22;7188;56.070;12.698;2024-01-06T04:56:15;-12.20;99.90
14210;DHT22;7188;56.070;12.698;2024-01-06T04:58:41;-12.20;99.90
14210;DHT22;7188;56.070;12.698;2024-01-06T05:01:06;-12.20;99.90
14210;DHT22;7188;56.070;12.698;2024-01-06T05:03:32;-12.20;99.90
14210;DHT22;7188;56.070;12.698;2024-01-06T05:05:58;-12.20;99.90
14210;DHT22;7188;56.070;12.698;2024-01-06T05:08:23;-12.20;99.90
14210;DHT22;7188;56.070;12.698;2024-01-06T05:10:52;-12.20;99.90
14210;DHT22;7188;56.070;12.698;2024-01-06T05:13:19;-12.20;99.90
14210;DHT22;7188;56.070;12.698;2024-01-06T05:15:44;-12.30;99.90
14210;DHT22;7188;56.070;12.698;2024-01-06T05:18:10;-12.30;99.90
14210;DHT22;7188;56.070;12.698;2024-01-06T05:20:36;-12.30;99.90
14210;DHT22;7188;56.070;12.698;2024-01-06T05:23:01;-12.30;99.90
14210;DHT22;7188;56.070;12.698;2024-01-06T05:25:27;-12.30;99.90
14210;DHT22;7188;56.070;12.698;2024-01-06T05:27:52;-12.30;99.90
14210;DHT22;7188;56.070;12.698;2024-01-06T05:30:18;-12.30;99.90
14210;DHT22;7188;56.070;12.698;2024-01-06T05:32:44;-12.30;99.90
14210;DHT22;7188;56.070;12.698;2024-01-06T05:35:09;-12.40;99.90
14210;DHT22;7188;56.070;12.698;2024-01-06T05:37:35;-12.40;99.90
14210;DHT22;7188;56.070;12.698;2024-01-06T05:40:01;-12.40;99.90
14210;DHT22;7188;56.070;12.698;2024-01-06T05:42:28;-12.40;99.90
14210;DHT22;7188;56.070;12.698;2024-01-06T05:44:54;-12.40;99.90
14210;DHT22;7188;56.070;12.698;2024-01-06T05:47:20;-12.40;99.90
14210;DHT22;7188;56.070;12.698;2024-01-06T05:49:45;-12.40;99.90
14210;DHT22;7188;56.070;12.698;2024-01-06T05:52:11;-12.40;99.90
14210;DHT22;7188;56.070;12.698;2024-01-06T05:54:40;-12.40;99.90
14210;DHT22;7188;56.070;12.698;2024-01-06T05:57:06;-12.40;99.90
14210;DHT22;7188;56.070;12.698;2024-01-06T05:59:35;-12.40;99.90
14210;DHT22;7188;56.070;12.698;2024-01-06T06:02:01;-12.40;99.90
14210;DHT22;7188;56.070;12.698;2024-01-06T06:04:27;-12.40;99.90
14210;DHT22;7188;56.070;12.698;2024-01-06T06:06:52;-12.40;99.90
14210;DHT22;7188;56.070;12.698;2024-01-06T06:09:18;-12.50;99.90
14210;DHT22;7188;56.070;12.698;2024-01-06T06:11:46;-12.50;99.90
14210;DHT22;7188;56.070;12.698;2024-01-06T06:14:11;-12.50;99.90
14210;DHT22;7188;56.070;12.698;2024-01-06T06:16:38;-12.50;99.90
14210;DHT22;7188;56.070;12.698;2024-01-06T06:19:04;-12.50;99.90
14210;DHT22;7188;56.070;12.698;2024-01-06T06:21:29;-12.50;99.90
14210;DHT22;7188;56.070;12.698;2024-01-06T06:23:55;-12.50;99.90
14210;DHT22;7188;56.070;12.698;2024-01-06T06:26:21;-12.60;99.90
14210;DHT22;7188;56.070;12.698;2024-01-06T06:28:46;-12.50;99.90
14210;DHT22;7188;56.070;12.698;2024-01-06T06:31:12;-12.50;99.90
14210;DHT22;7188;56.070;12.698;2024-01-06T06:33:38;-12.50;99.90
14210;DHT22;7188;56.070;12.698;2024-01-06T06:36:04;-12.50;99.90
14210;DHT22;7188;56.070;12.698;2024-01-06T06:38:30;-12.50;99.90
14210;DHT22;7188;56.070;12.698;2024-01-06T06:40:56;-12.50;99.90
14210;DHT22;7188;56.070;12.698;2024-01-06T06:43:21;-12.40;99.90
14210;DHT22;7188;56.070;12.698;2024-01-06T06:45:47;-12.30;99.90
14210;DHT22;7188;56.070;12.698;2024-01-06T06:48:13;-12.30;99.90
14210;DHT22;7188;56.070;12.698;2024-01-06T06:50:39;-12.40;99.90
14210;DHT22;7188;56.070;12.698;2024-01-06T06:53:06;-12.50;99.90
14210;DHT22;7188;56.070;12.698;2024-01-06T06:55:32;-12.60;99.90
14210;DHT22;7188;56.070;12.698;2024-01-06T06:57:57;-12.60;99.90
14210;DHT22;7188;56.070;12.698;2024-01-06T07:00:23;-12.60;99.90
14210;DHT22;7188;56.070;12.698;2024-01-06T07:02:49;-12.70;99.90
14210;DHT22;7188;56.070;12.698;2024-01-06T07:05:15;-12.60;99.90
14210;DHT22;7188;56.070;12.698;2024-01-06T07:07:41;-12.60;99.90
14210;DHT22;7188;56.070;12.698;2024-01-06T07:10:08;-12.60;99.90
14210;DHT22;7188;56.070;12.698;2024-01-06T07:12:34;-12.70;99.90
14210;DHT22;7188;56.070;12.698;2024-01-06T07:15:00;-12.70;99.90
14210;DHT22;7188;56.070;12.698;2024-01-06T07:17:25;-12.70;99.90
14210;DHT22;7188;56.070;12.698;2024-01-06T07:20:06;-12.70;99.90
14210;DHT22;7188;56.070;12.698;2024-01-06T07:22:33;-12.60;99.90
14210;DHT22;7188;56.070;12.698;2024-01-06T07:25:01;-12.70;99.90
14210;DHT22;7188;56.070;12.698;2024-01-06T07:27:27;-12.60;99.90
14210;DHT22;7188;56.070;12.698;2024-01-06T07:29:53;-12.60;99.90
14210;DHT22;7188;56.070;12.698;2024-01-06T07:32:21;-12.70;99.90
14210;DHT22;7188;56.070;12.698;2024-01-06T07:34:47;-12.70;99.90
14210;DHT22;7188;56.070;12.698;2024-01-06T07:37:12;-12.70;99.90
14210;DHT22;7188;56.070;12.698;2024-01-06T07:39:38;-12.70;99.90
14210;DHT22;7188;56.070;12.698;2024-01-06T07:42:04;-12.60;99.90
14210;DHT22;7188;56.070;12.698;2024-01-06T07:47:52;-12.50;99.90
14210;DHT22;7188;56.070;12.698;2024-01-06T07:50:17;-12.40;99.90
14210;DHT22;7188;56.070;12.698;2024-01-06T07:52:43;-12.50;99.90
14210;DHT22;7188;56.070;12.698;2024-01-06T07:55:08;-12.60;99.90
14210;DHT22;7188;56.070;12.698;2024-01-06T07:57:34;-12.60;99.90
14210;DHT22;7188;56.070;12.698;2024-01-06T08:00:00;-12.60;99.90
14210;DHT22;7188;56.070;12.698;2024-01-06T08:02:26;-12.70;99.90
14210;DHT22;7188;56.070;12.698;2024-01-06T08:04:51;-12.70;99.90
14210;DHT22;7188;56.070;12.698;2024-01-06T08:07:17;-12.70;99.90
14210;DHT22;7188;56.070;12.698;2024-01-06T08:09:43;-12.60;99.90
14210;DHT22;7188;56.070;12.698;2024-01-06T08:12:09;-12.60;99.90
14210;DHT22;7188;56.070;12.698;2024-01-06T08:14:34;-12.60;99.90
14210;DHT22;7188;56.070;12.698;2024-01-06T08:17:00;-12.60;99.90
14210;DHT22;7188;56.070;12.698;2024-01-06T08:19:25;-12.60;99.90
14210;DHT22;7188;56.070;12.698;2024-01-06T08:21:53;-12.60;99.90
14210;DHT22;7188;56.070;12.698;2024-01-06T08:24:19;-12.60;99.90
14210;DHT22;7188;56.070;12.698;2024-01-06T08:26:45;-12.70;99.90
14210;DHT22;7188;56.070;12.698;2024-01-06T08:29:10;-12.60;99.90
14210;DHT22;7188;56.070;12.698;2024-01-06T08:31:36;-12.50;99.90
14210;DHT22;7188;56.070;12.698;2024-01-06T08:34:01;-12.50;99.90
14210;DHT22;7188;56.070;12.698;2024-01-06T08:36:27;-12.40;99.90
14210;DHT22;7188;56.070;12.698;2024-01-06T08:38:52;-12.40;99.90
14210;DHT22;7188;56.070;12.698;2024-01-06T08:41:18;-12.30;99.90
14210;DHT22;7188;56.070;12.698;2024-01-06T08:43:44;-12.20;99.90
14210;DHT22;7188;56.070;12.698;2024-01-06T08:46:18;-12.10;99.90
14210;DHT22;7188;56.070;12.698;2024-01-06T08:48:44;-12.10;99.90
14210;DHT22;7188;56.070;12.698;2024-01-06T08:51:09;-12.00;99.90
14210;DHT22;7188;56.070;12.698;2024-01-06T08:53:35;-12.10;99.90
14210;DHT22;7188;56.070;12.698;2024-01-06T08:56:01;-12.10;99.90
14210;DHT22;7188;56.070;12.698;2024-01-06T08:58:26;-12.10;99.90
14210;DHT22;7188;56.070;12.698;2024-01-06T09:00:53;-12.10;99.90
14210;DHT22;7188;56.070;12.698;2024-01-06T09:03:19;-12.10;99.90
14210;DHT22;7188;56.070;12.698;2024-01-06T09:05:57;-12.00;99.90
14210;DHT22;7188;56.070;12.698;2024-01-06T09:08:23;-11.90;99.90
14210;DHT22;7188;56.070;12.698;2024-01-06T09:10:49;-11.80;99.90
14210;DHT22;7188;56.070;12.698;2024-01-06T09:13:17;-11.60;99.90
14210;DHT22;7188;56.070;12.698;2024-01-06T09:15:43;-11.50;99.90
14210;DHT22;7188;56.070;12.698;2024-01-06T09:18:11;-11.60;99.90
14210;DHT22;7188;56.070;12.698;2024-01-06T09:20:38;-11.40;99.90
14210;DHT22;7188;56.070;12.698;2024-01-06T09:23:04;-11.30;99.90
14210;DHT22;7188;56.070;12.698;2024-01-06T09:25:30;-11.20;99.90
14210;DHT22;7188;56.070;12.698;2024-01-06T09:27:55;-11.20;99.90
14210;DHT22;7188;56.070;12.698;2024-01-06T09:30:21;-11.30;99.90
14210;DHT22;7188;56.070;12.698;2024-01-06T09:32:47;-11.40;99.90
14210;DHT22;7188;56.070;12.698;2024-01-06T09:35:12;-11.40;99.90
14210;DHT22;7188;56.070;12.698;2024-01-06T09:37:38;-11.40;99.90
14210;DHT22;7188;56.070;12.698;2024-01-06T09:40:04;-11.50;99.90
14210;DHT22;7188;56.070;12.698;2024-01-06T09:42:30;-11.50;99.90
14210;DHT22;7188;56.070;12.698;2024-01-06T09:44:55;-11.50;99.90
14210;DHT22;7188;56.070;12.698;2024-01-06T09:47:26;-11.40;99.90
14210;DHT22;7188;56.070;12.698;2024-01-06T09:49:55;-11.40;99.90
14210;DHT22;7188;56.070;12.698;2024-01-06T09:52:32;-11.40;99.90
14210;DHT22;7188;56.070;12.698;2024-01-06T09:55:00;-11.40;99.90
14210;DHT22;7188;56.070;12.698;2024-01-06T09:57:27;-11.30;99.90
14210;DHT22;7188;56.070;12.698;2024-01-06T09:59:53;-11.30;99.90
14210;DHT22;7188;56.070;12.698;2024-01-06T10:02:19;-11.20;99.90
14210;DHT22;7188;56.070;12.698;2024-01-06T10:04:46;-11.20;99.90
14210;DHT22;7188;56.070;12.698;2024-01-06T10:07:12;-11.10;99.90
14210;DHT22;7188;56.070;12.698;2024-01-06T10:09:41;-11.10;99.90
14210;DHT22;7188;56.070;12.698;2024-01-06T10:12:09;-11.10;99.90
14210;DHT22;7188;56.070;12.698;2024-01-06T10:14:36;-11.10;99.90
14210;DHT22;7188;56.070;12.698;2024-01-06T10:17:02;-11.10;99.90
14210;DHT22;7188;56.070;12.698;2024-01-06T10:19:30;-11.10;99.90
14210;DHT22;7188;56.070;12.698;2024-01-06T10:21:56;-11.00;99.90
14210;DHT22;7188;56.070;12.698;2024-01-06T10:24:25;-10.90;99.90
14210;DHT22;7188;56.070;12.698;2024-01-06T10:26:51;-10.90;99.90
14210;DHT22;7188;56.070;12.698;2024-01-06T10:29:17;-10.70;99.90
14210;DHT22;7188;56.070;12.698;2024-01-06T10:31:43;-10.70;99.90
14210;DHT22;7188;56.070;12.698;2024-01-06T10:34:08;-10.70;99.90
14210;DHT22;7188;56.070;12.698;2024-01-06T10:36:35;-10.70;99.90
14210;DHT22;7188;56.070;12.698;2024-01-06T10:39:03;-10.70;99.90
14210;DHT22;7188;56.070;12.698;2024-01-06T10:41:30;-10.60;99.90
14210;DHT22;7188;56.070;12.698;2024-01-06T10:43:58;-10.50;99.90
14210;DHT22;7188;56.070;12.698;2024-01-06T10:46:27;-10.50;99.90
14210;DHT22;7188;56.070;12.698;2024-01-06T10:48:55;-10.50;99.90
14210;DHT22;7188;56.070;12.698;2024-01-06T10:51:23;-10.40;99.90
14210;DHT22;7188;56.070;12.698;2024-01-06T10:53:51;-10.40;99.90
14210;DHT22;7188;56.070;12.698;2024-01-06T10:56:38;-10.40;99.90
14210;DHT22;7188;56.070;12.698;2024-01-06T10:59:04;-10.40;99.90
14210;DHT22;7188;56.070;12.698;2024-01-06T11:01:31;-10.40;99.90
14210;DHT22;7188;56.070;12.698;2024-01-06T11:03:59;-10.30;99.90
14210;DHT22;7188;56.070;12.698;2024-01-06T11:06:26;-10.30;99.90
14210;DHT22;7188;56.070;12.698;2024-01-06T11:09:11;-10.20;99.90
14210;DHT22;7188;56.070;12.698;2024-01-06T11:11:39;-10.20;99.90
14210;DHT22;7188;56.070;12.698;2024-01-06T11:16:47;-10.10;99.90
14210;DHT22;7188;56.070;12.698;2024-01-06T11:22:28;-10.00;99.90
14210;DHT22;7188;56.070;12.698;2024-01-06T11:25:07;-10.00;99.90
14210;DHT22;7188;56.070;12.698;2024-01-06T11:27:33;-9.90;99.90
14210;DHT22;7188;56.070;12.698;2024-01-06T11:30:00;-9.90;99.90
14210;DHT22;7188;56.070;12.698;2024-01-06T11:32:32;-9.80;99.90
14210;DHT22;7188;56.070;12.698;2024-01-06T11:35:14;-9.90;99.90
14210;DHT22;7188;56.070;12.698;2024-01-06T11:42:47;-9.80;99.90
14210;DHT22;7188;56.070;12.698;2024-01-06T11:45:14;-9.80;99.90
14210;DHT22;7188;56.070;12.698;2024-01-06T11:47:40;-9.80;99.90
14210;DHT22;7188;56.070;12.698;2024-01-06T11:50:12;-9.80;99.90
14210;DHT22;7188;56.070;12.698;2024-01-06T11:52:38;-9.80;99.90
14210;DHT22;7188;56.070;12.698;2024-01-06T11:55:05;-9.70;99.90
14210;DHT22;7188;56.070;12.698;2024-01-06T11:57:34;-9.70;99.90
14210;DHT22;7188;56.070;12.698;2024-01-06T12:00:00;-9.60;99.90
14210;DHT22;7188;56.070;12.698;2024-01-06T12:02:25;-9.60;99.90
14210;DHT22;7188;56.070;12.698;2024-01-06T12:04:52;-9.60;99.90
14210;DHT22;7188;56.070;12.698;2024-01-06T12:07:19;-9.60;99.90
14210;DHT22;7188;56.070;12.698;2024-01-06T12:10:02;-9.60;99.90
14210;DHT22;7188;56.070;12.698;2024-01-06T12:12:28;-9.60;99.90
14210;DHT22;7188;56.070;12.698;2024-01-06T12:14:53;-9.60;99.90
14210;DHT22;7188;56.070;12.698;2024-01-06T12:17:21;-9.60;99.90
14210;DHT22;7188;56.070;12.698;2024-01-06T12:19:47;-9.50;99.90
14210;DHT22;7188;56.070;12.698;2024-01-06T12:22:14;-9.50;99.90
14210;DHT22;7188;56.070;12.698;2024-01-06T12:24:40;-9.40;99.90
14210;DHT22;7188;56.070;12.698;2024-01-06T12:27:08;-9.30;99.90
14210;DHT22;7188;56.070;12.698;2024-01-06T12:29:42;-9.30;99.90
14210;DHT22;7188;56.070;12.698;2024-01-06T12:32:09;-9.10;99.90
14210;DHT22;7188;56.070;12.698;2024-01-06T12:34:35;-9.10;99.90
14210;DHT22;7188;56.070;12.698;2024-01-06T12:37:01;-9.10;99.90
14210;DHT22;7188;56.070;12.698;2024-01-06T12:39:28;-9.10;99.90
14210;DHT22;7188;56.070;12.698;2024-01-06T12:41:55;-9.10;99.90
14210;DHT22;7188;56.070;12.698;2024-01-06T12:44:21;-9.10;99.90
14210;DHT22;7188;56.070;12.698;2024-01-06T12:46:47;-9.10;99.90
14210;DHT22;7188;56.070;12.698;2024-01-06T12:49:13;-9.10;99.90
14210;DHT22;7188;56.070;12.698;2024-01-06T12:51:38;-9.10;99.90
14210;DHT22;7188;56.070;12.698;2024-01-06T12:54:04;-9.10;99.90
14210;DHT22;7188;56.070;12.698;2024-01-06T12:56:30;-9.00;99.90
14210;DHT22;7188;56.070;12.698;2024-01-06T12:58:56;-9.00;99.90
14210;DHT22;7188;56.070;12.698;2024-01-06T13:01:21;-9.00;99.90
14210;DHT22;7188;56.070;12.698;2024-01-06T13:03:47;-9.00;99.90
14210;DHT22;7188;56.070;12.698;2024-01-06T13:06:13;-8.90;99.90
14210;DHT22;7188;56.070;12.698;2024-01-06T13:08:40;-8.90;99.90
14210;DHT22;7188;56.070;12.698;2024-01-06T13:11:05;-8.90;99.90
14210;DHT22;7188;56.070;12.698;2024-01-06T13:13:32;-8.90;99.90
14210;DHT22;7188;56.070;12.698;2024-01-06T13:15:57;-8.90;99.90
14210;DHT22;7188;56.070;12.698;2024-01-06T13:18:23;-8.80;99.90
14210;DHT22;7188;56.070;12.698;2024-01-06T13:20:48;-8.80;99.90
14210;DHT22;7188;56.070;12.698;2024-01-06T13:23:15;-8.90;99.90
14210;DHT22;7188;56.070;12.698;2024-01-06T13:25:41;-8.80;99.90
14210;DHT22;7188;56.070;12.698;2024-01-06T13:28:07;-8.60;99.90
14210;DHT22;7188;56.070;12.698;2024-01-06T13:30:33;-8.60;99.90
14210;DHT22;7188;56.070;12.698;2024-01-06T13:32:59;-8.60;99.90
14210;DHT22;7188;56.070;12.698;2024-01-06T13:35:25;-8.50;99.90
14210;DHT22;7188;56.070;12.698;2024-01-06T13:37:54;-8.60;99.90
14210;DHT22;7188;56.070;12.698;2024-01-06T13:40:22;-8.50;99.90
14210;DHT22;7188;56.070;12.698;2024-01-06T13:42:51;-8.60;99.90
14210;DHT22;7188;56.070;12.698;2024-01-06T13:45:18;-8.80;99.90
14210;DHT22;7188;56.070;12.698;2024-01-06T13:47:44;-8.90;99.90
14210;DHT22;7188;56.070;12.698;2024-01-06T13:50:15;-9.00;99.90
14210;DHT22;7188;56.070;12.698;2024-01-06T13:52:41;-9.00;99.90
14210;DHT22;7188;56.070;12.698;2024-01-06T13:55:08;-9.00;99.90
14210;DHT22;7188;56.070;12.698;2024-01-06T13:57:34;-9.10;99.90
14210;DHT22;7188;56.070;12.698;2024-01-06T14:00:00;-9.10;99.90
14210;DHT22;7188;56.070;12.698;2024-01-06T14:02:26;-9.10;99.90
14210;DHT22;7188;56.070;12.698;2024-01-06T14:04:52;-9.10;99.90
14210;DHT22;7188;56.070;12.698;2024-01-06T14:07:18;-9.10;99.90
14210;DHT22;7188;56.070;12.698;2024-01-06T14:09:45;-9.10;99.90
14210;DHT22;7188;56.070;12.698;2024-01-06T14:12:11;-9.10;99.90
14210;DHT22;7188;56.070;12.698;2024-01-06T14:14:37;-9.20;99.90
14210;DHT22;7188;56.070;12.698;2024-01-06T14:17:03;-9.20;99.90
14210;DHT22;7188;56.070;12.698;2024-01-06T14:19:29;-9.20;99.90
14210;DHT22;7188;56.070;12.698;2024-01-06T14:21:54;-9.30;99.90
14210;DHT22;7188;56.070;12.698;2024-01-06T14:24:20;-9.30;99.90
14210;DHT22;7188;56.070;12.698;2024-01-06T14:26:51;-9.30;99.90
14210;DHT22;7188;56.070;12.698;2024-01-06T14:29:18;-9.40;99.90
14210;DHT22;7188;56.070;12.698;2024-01-06T14:31:44;-9.30;99.90
14210;DHT22;7188;56.070;12.698;2024-01-06T14:34:10;-9.30;99.90
14210;DHT22;7188;56.070;12.698;2024-01-06T14:36:36;-9.30;99.90
14210;DHT22;7188;56.070;12.698;2024-01-06T14:39:01;-9.40;99.90
14210;DHT22;7188;56.070;12.698;2024-01-06T14:41:29;-9.40;99.90
14210;DHT22;7188;56.070;12.698;2024-01-06T14:43:55;-9.40;99.90
14210;DHT22;7188;56.070;12.698;2024-01-06T14:46:20;-9.40;99.90
14210;DHT22;7188;56.070;12.698;2024-01-06T14:48:46;-9.50;99.90
14210;DHT22;7188;56.070;12.698;2024-01-06T14:51:12;-9.50;99.90
14210;DHT22;7188;56.070;12.698;2024-01-06T14:53:38;-9.50;99.90
14210;DHT22;7188;56.070;12.698;2024-01-06T14:56:04;-9.50;99.90
14210;DHT22;7188;56.070;12.698;2024-01-06T14:58:30;-9.40;99.90
14210;DHT22;7188;56.070;12.698;2024-01-06T15:00:55;-9.40;99.90
14210;DHT22;7188;56.070;12.698;2024-01-06T15:03:21;-9.40;99.90
14210;DHT22;7188;56.070;12.698;2024-01-06T15:05:49;-9.40;99.90
14210;DHT22;7188;56.070;12.698;2024-01-06T15:08:52;-9.50;99.90
14210;DHT22;7188;56.070;12.698;2024-01-06T15:11:19;-9.40;99.90
14210;DHT22;7188;56.070;12.698;2024-01-06T15:13:44;-9.40;99.90
14210;DHT22;7188;56.070;12.698;2024-01-06T15:16:11;-9.50;99.90
14210;DHT22;7188;56.070;12.698;2024-01-06T15:18:36;-9.40;99.90
14210;DHT22;7188;56.070;12.698;2024-01-06T15:21:02;-9.50;99.90
14210;DHT22;7188;56.070;12.698;2024-01-06T15:23:28;-9.40;99.90
14210;DHT22;7188;56.070;12.698;2024-01-06T15:25:53;-9.50;99.90
14210;DHT22;7188;56.070;12.698;2024-01-06T15:28:20;-9.50;99.90
14210;DHT22;7188;56.070;12.698;2024-01-06T15:30:45;-9.50;99.90
14210;DHT22;7188;56.070;12.698;2024-01-06T15:33:11;-9.50;99.90